createdAt,value
2018-03-14T00:00:52.881Z,82.48
2018-03-14T00:03:20.363Z,82.30
2018-03-14T00:05:47.825Z,81.94
2018-03-14T00:08:15.549Z,82.18
2018-03-14T00:10:43.026Z,82.19
2018-03-14T00:13:10.477Z,82.13
2018-03-14T00:15:37.958Z,82.23
2018-03-14T00:18:05.421Z,82.09
2018-03-14T00:20:32.905Z,80.56
2018-03-14T00:23:00.361Z,81.23
2018-03-14T00:25:27.834Z,80.95
2018-03-14T00:27:55.313Z,80.33
2018-03-14T00:30:22.797Z,81.61
2018-03-14T00:32:50.281Z,81.55
2018-03-14T00:35:17.765Z,81.72
2018-03-14T00:37:45.225Z,82.82
2018-03-14T00:40:12.740Z,81.67
2018-03-14T00:42:40.209Z,82.01
2018-03-14T00:45:07.697Z,82.58
2018-03-14T00:47:35.149Z,82.18
2018-03-14T00:50:02.607Z,82.43
2018-03-14T00:52:30.084Z,82.66
2018-03-14T00:54:58.010Z,82.61
2018-03-14T00:57:25.901Z,82.50
2018-03-14T00:59:53.357Z,82.48
2018-03-14T01:02:20.813Z,82.20
2018-03-14T01:04:48.289Z,82.01
2018-03-14T01:07:15.771Z,81.55
2018-03-14T01:09:43.389Z,80.93
2018-03-14T01:12:10.845Z,80.85
2018-03-14T01:14:38.297Z,80.66
2018-03-14T01:17:05.774Z,80.89
2018-03-14T01:19:33.241Z,80.30
2018-03-14T01:22:00.729Z,81.01
2018-03-14T01:24:28.181Z,80.76
2018-03-14T01:26:55.641Z,81.81
2018-03-14T01:29:23.125Z,79.88
2018-03-14T01:31:50.592Z,79.75
2018-03-14T01:34:18.074Z,78.55
2018-03-14T01:36:45.540Z,79.11
2018-03-14T01:39:13.028Z,79.43
2018-03-14T01:41:41.091Z,79.34
2018-03-14T01:44:08.557Z,79.61
2018-03-14T01:46:36.254Z,80.04
2018-03-14T01:49:03.799Z,79.63
2018-03-14T01:51:31.261Z,79.72
2018-03-14T01:53:58.757Z,79.36
2018-03-14T01:56:26.214Z,79.54
2018-03-14T01:58:53.912Z,79.72
2018-03-14T02:01:21.368Z,79.68
2018-03-14T02:03:48.841Z,79.87
2018-03-14T02:06:16.321Z,79.72
2018-03-14T02:08:43.785Z,80.20
2018-03-14T02:11:11.565Z,79.97
2018-03-14T02:13:39.021Z,80.01
2018-03-14T02:16:06.481Z,79.74
2018-03-14T02:18:33.985Z,79.64
2018-03-14T02:21:01.438Z,80.00
2018-03-14T02:23:29.112Z,79.45
2018-03-14T02:25:56.569Z,79.78
2018-03-14T02:28:24.592Z,80.03
2018-03-14T02:30:52.190Z,80.32
2018-03-14T02:33:19.657Z,80.11
2018-03-14T02:35:47.149Z,80.73
2018-03-14T02:38:14.603Z,79.72
2018-03-14T02:40:42.249Z,80.41
2018-03-14T02:43:09.722Z,80.13
2018-03-14T02:45:37.183Z,79.70
2018-03-14T02:48:04.653Z,79.61
2018-03-14T02:50:32.721Z,79.71
2018-03-14T02:53:00.156Z,79.71
2018-03-14T02:55:27.640Z,80.36
2018-03-14T02:57:55.098Z,79.87
2018-03-14T03:00:22.692Z,79.90
2018-03-14T03:02:50.133Z,80.21
2018-03-14T03:05:17.584Z,80.87
2018-03-14T03:07:45.045Z,81.24
2018-03-14T03:10:12.480Z,81.40
2018-03-14T03:12:39.954Z,80.93
2018-03-14T03:15:07.427Z,81.08
2018-03-14T03:17:34.864Z,81.37
2018-03-14T03:20:02.330Z,81.63
2018-03-14T03:22:29.771Z,81.21
2018-03-14T03:24:57.409Z,81.84
2018-03-14T03:27:24.858Z,81.67
2018-03-14T03:29:52.298Z,81.42
2018-03-14T03:32:19.780Z,81.21
2018-03-14T03:34:47.233Z,81.69
2018-03-14T03:37:14.887Z,82.05
2018-03-14T03:39:42.321Z,81.75
2018-03-14T03:42:09.784Z,83.20
2018-03-14T03:44:37.242Z,83.08
2018-03-14T03:47:04.693Z,83.84
2018-03-14T03:49:32.312Z,83.51
2018-03-14T03:51:59.753Z,83.90
2018-03-14T03:54:27.197Z,83.96
2018-03-14T03:56:54.758Z,84.24
2018-03-14T03:59:22.199Z,85.11
2018-03-14T04:01:49.686Z,85.56
2018-03-14T04:04:17.128Z,84.96
2018-03-14T04:06:44.565Z,84.52
2018-03-14T04:09:12.050Z,84.47
2018-03-14T04:11:39.489Z,84.16
2018-03-14T04:14:07.118Z,84.12
2018-03-14T04:16:34.557Z,83.99
2018-03-14T04:19:01.995Z,84.22
2018-03-14T04:21:29.469Z,83.91
2018-03-14T04:23:56.941Z,83.55
2018-03-14T04:26:24.404Z,84.38
2018-03-14T04:28:51.853Z,85.16
2018-03-14T04:31:19.293Z,86.11
2018-03-14T04:33:46.753Z,86.20
2018-03-14T04:36:14.213Z,85.57
2018-03-14T04:38:41.769Z,86.36
2018-03-14T04:41:09.207Z,86.01
2018-03-14T04:43:36.665Z,86.52
2018-03-14T04:46:04.132Z,86.15
2018-03-14T04:48:31.592Z,85.60
2018-03-14T04:50:59.237Z,85.21
2018-03-14T04:53:26.705Z,85.42
2018-03-14T04:55:54.141Z,86.28
2018-03-14T04:58:21.604Z,85.89
2018-03-14T05:00:49.061Z,85.46
2018-03-14T05:03:16.781Z,84.98
2018-03-14T05:05:44.218Z,84.99
2018-03-14T05:08:11.674Z,85.32
2018-03-14T05:10:39.157Z,86.17
2018-03-14T05:13:06.600Z,86.16
2018-03-14T05:15:34.066Z,86.11
2018-03-14T05:18:01.519Z,85.92
2018-03-14T05:20:28.981Z,86.34
2018-03-14T05:22:56.464Z,85.48
2018-03-14T05:25:23.905Z,85.75
2018-03-14T05:27:51.549Z,84.55
2018-03-14T05:30:18.984Z,84.50
2018-03-14T05:32:46.422Z,84.13
2018-03-14T05:35:13.884Z,84.37
2018-03-14T05:37:41.337Z,83.98
2018-03-14T05:40:09.132Z,85.34
2018-03-14T05:42:36.577Z,84.76
2018-03-14T05:45:04.019Z,84.44
2018-03-14T05:47:31.489Z,83.92
2018-03-14T05:49:58.926Z,84.52
2018-03-14T05:52:26.705Z,84.04
2018-03-14T05:54:54.142Z,83.92
2018-03-14T05:57:21.581Z,83.35
2018-03-14T05:59:49.058Z,83.59
2018-03-14T06:02:16.501Z,83.87
2018-03-14T06:04:43.961Z,84.73
2018-03-14T06:07:11.409Z,84.62
2018-03-14T06:09:38.862Z,84.34
2018-03-14T06:12:06.318Z,84.48
2018-03-14T06:14:33.765Z,84.56
2018-03-14T06:17:01.385Z,83.87
2018-03-14T06:19:28.823Z,84.20
2018-03-14T06:21:56.263Z,83.55
2018-03-14T06:24:23.721Z,82.74
2018-03-14T06:26:51.161Z,83.33
2018-03-14T06:29:18.676Z,83.92
2018-03-14T06:31:46.161Z,83.88
2018-03-14T06:34:13.605Z,83.56
2018-03-14T06:36:41.061Z,84.18
2018-03-14T06:39:08.500Z,84.02
2018-03-14T06:41:36.181Z,83.13
2018-03-14T06:44:03.621Z,83.56
2018-03-14T06:46:31.059Z,83.89
2018-03-14T06:48:58.525Z,84.10
2018-03-14T06:51:25.965Z,84.34
2018-03-14T06:53:53.609Z,83.74
2018-03-14T06:56:21.051Z,83.90
2018-03-14T06:59:00.368Z,83.99
2018-03-14T07:01:39.598Z,84.35
2018-03-14T07:04:18.829Z,83.87
2018-03-14T07:06:46.273Z,83.75
2018-03-14T07:09:13.727Z,84.01
2018-03-14T07:11:41.197Z,83.96
2018-03-14T07:14:08.661Z,83.29
2018-03-14T07:16:36.298Z,82.88
2018-03-14T07:19:03.733Z,83.11
2018-03-14T07:21:31.189Z,83.87
2018-03-14T07:23:58.654Z,83.45
2018-03-14T07:26:26.116Z,83.50
2018-03-14T07:28:53.751Z,82.60
2018-03-14T07:31:21.189Z,83.73
2018-03-14T07:33:48.636Z,83.67
2018-03-14T07:36:16.102Z,83.44
2018-03-14T07:38:43.557Z,83.19
2018-03-14T07:41:11.197Z,82.85
2018-03-14T07:43:38.635Z,82.69
2018-03-14T07:46:06.102Z,82.29
2018-03-14T07:48:33.619Z,82.61
2018-03-14T07:51:01.081Z,82.35
2018-03-14T07:53:28.562Z,80.73
2018-03-14T07:55:56.013Z,79.27
2018-03-14T07:58:23.467Z,77.74
2018-03-14T08:00:50.954Z,77.16
2018-03-14T08:03:18.414Z,76.37
2018-03-14T08:05:46.036Z,76.37
2018-03-14T08:08:13.445Z,76.46
2018-03-14T08:10:40.887Z,76.91
2018-03-14T08:13:08.358Z,76.80
2018-03-14T08:15:35.825Z,76.94
2018-03-14T08:18:03.449Z,76.54
2018-03-14T08:20:30.906Z,76.71
2018-03-14T08:22:58.352Z,75.91
2018-03-14T08:25:25.813Z,75.83
2018-03-14T08:27:53.281Z,74.80
2018-03-14T08:30:20.782Z,74.76
2018-03-14T08:32:48.225Z,72.98
2018-03-14T08:35:15.675Z,73.47
2018-03-14T08:37:43.173Z,73.41
2018-03-14T08:40:10.621Z,73.59
2018-03-14T08:42:38.241Z,74.40
2018-03-14T08:45:05.685Z,73.47
2018-03-14T08:47:33.129Z,72.14
2018-03-14T08:50:00.598Z,70.42
2018-03-14T08:52:28.062Z,69.97
2018-03-14T08:54:55.997Z,69.79
2018-03-14T08:57:23.444Z,70.02
2018-03-14T08:59:50.881Z,69.34
2018-03-14T09:02:18.345Z,68.58
2018-03-14T09:04:45.780Z,68.92
2018-03-14T09:07:13.261Z,69.06
2018-03-14T09:09:40.729Z,68.35
2018-03-14T09:12:08.181Z,67.72
2018-03-14T09:14:35.676Z,65.35
2018-03-14T09:17:03.137Z,63.98
2018-03-14T09:19:30.893Z,63.78
2018-03-14T09:21:58.347Z,64.00
2018-03-14T09:24:25.826Z,64.91
2018-03-14T09:26:53.297Z,66.42
2018-03-14T09:29:20.753Z,64.79
2018-03-14T09:31:48.492Z,65.10
2018-03-14T09:34:15.913Z,64.06
2018-03-14T09:36:43.351Z,64.08
2018-03-14T09:39:10.813Z,65.05
2018-03-14T09:41:38.261Z,65.01
2018-03-14T09:44:06.137Z,65.48
2018-03-14T09:46:33.585Z,65.46
2018-03-14T09:49:01.032Z,64.91
2018-03-14T09:51:28.532Z,66.03
2018-03-14T09:53:55.989Z,65.66
2018-03-14T09:56:23.462Z,65.59
2018-03-14T09:58:50.919Z,64.60
2018-03-14T10:01:18.369Z,65.00
2018-03-14T10:03:45.853Z,64.47
2018-03-14T10:06:13.302Z,64.41
2018-03-14T10:08:40.781Z,64.92
2018-03-14T10:11:08.254Z,63.86
2018-03-14T10:13:35.773Z,64.55
2018-03-14T10:16:03.245Z,65.29
2018-03-14T10:18:30.697Z,63.33
2018-03-14T10:20:58.453Z,64.78
2018-03-14T10:23:25.905Z,65.00
2018-03-14T10:25:53.356Z,64.89
2018-03-14T10:28:20.833Z,64.46
2018-03-14T10:30:48.321Z,64.48
2018-03-14T10:33:16.089Z,63.10
2018-03-14T10:35:43.551Z,63.77
2018-03-14T10:38:11.010Z,64.49
2018-03-14T10:40:38.504Z,63.62
2018-03-14T10:43:05.986Z,63.11
2018-03-14T10:45:33.588Z,62.18
2018-03-14T10:48:01.052Z,62.60
2018-03-14T10:50:28.498Z,60.92
2018-03-14T10:52:55.969Z,62.25
2018-03-14T10:55:23.442Z,62.95
2018-03-14T10:57:50.937Z,62.39
2018-03-14T11:00:23.945Z,59.99
2018-03-14T11:02:53.325Z,60.67
2018-03-14T11:05:20.793Z,58.88
2018-03-14T11:07:48.300Z,59.16
2018-03-14T11:10:15.735Z,58.19
2018-03-14T11:12:43.184Z,59.51
2018-03-14T11:15:11.074Z,59.14
2018-03-14T11:17:38.515Z,56.90
2018-03-14T11:20:05.973Z,57.41
2018-03-14T11:22:33.465Z,57.32
2018-03-14T11:25:00.914Z,57.43
2018-03-14T11:27:28.652Z,56.69
2018-03-14T11:29:56.120Z,57.72
2018-03-14T11:32:23.564Z,59.06
2018-03-14T11:34:51.064Z,59.63
2018-03-14T11:37:18.513Z,59.18
2018-03-14T11:39:46.190Z,58.39
2018-03-14T11:42:13.665Z,58.96
2018-03-14T11:44:41.189Z,58.24
2018-03-14T11:47:08.598Z,57.27
2018-03-14T11:49:36.043Z,56.33
2018-03-14T11:52:03.514Z,57.67
2018-03-14T11:54:30.970Z,56.95
2018-03-14T11:56:58.411Z,58.13
2018-03-14T11:59:25.883Z,57.75
2018-03-14T12:01:53.329Z,59.02
2018-03-14T12:04:20.987Z,57.58
2018-03-14T12:06:48.433Z,58.12
2018-03-14T12:09:15.881Z,57.86
2018-03-14T12:11:43.348Z,58.50
2018-03-14T12:14:10.785Z,58.93
2018-03-14T12:16:38.257Z,59.77
2018-03-14T12:19:05.693Z,59.16
2018-03-14T12:21:33.130Z,57.79
2018-03-14T12:24:00.609Z,58.31
2018-03-14T12:26:28.059Z,60.27
2018-03-14T12:28:55.684Z,59.05
2018-03-14T12:31:23.188Z,58.88
2018-03-14T12:33:51.313Z,59.27
2018-03-14T12:36:18.775Z,58.05
2018-03-14T12:38:46.230Z,58.86
2018-03-14T12:41:13.694Z,57.61
2018-03-14T12:43:41.136Z,57.75
2018-03-14T12:46:08.757Z,57.84
2018-03-14T12:48:36.214Z,57.99
2018-03-14T12:51:03.694Z,58.34
2018-03-14T12:53:31.290Z,57.66
2018-03-14T12:55:58.756Z,58.92
2018-03-14T12:58:26.229Z,59.24
2018-03-14T13:00:53.694Z,58.52
2018-03-14T13:03:21.135Z,59.16
2018-03-14T13:05:48.573Z,58.60
2018-03-14T13:08:16.616Z,59.12
2018-03-14T13:10:44.469Z,59.58
2018-03-14T13:13:11.936Z,59.35
2018-03-14T13:15:39.398Z,59.56
2018-03-14T13:18:06.862Z,60.38
2018-03-14T13:20:34.328Z,61.71
2018-03-14T13:23:01.769Z,63.29
2018-03-14T13:25:29.236Z,59.87
2018-03-14T13:27:56.718Z,59.83
2018-03-14T13:30:24.153Z,58.56
2018-03-14T13:32:51.604Z,59.15
2018-03-14T13:35:19.073Z,58.09
2018-03-14T13:37:46.525Z,57.92
2018-03-14T13:40:13.962Z,56.06
2018-03-14T13:42:41.421Z,56.63
2018-03-14T13:45:08.863Z,57.05
2018-03-14T13:47:36.307Z,56.21
2018-03-14T13:50:03.784Z,57.21
2018-03-14T13:52:31.240Z,58.29
2018-03-14T13:54:58.889Z,57.16
2018-03-14T13:57:26.401Z,57.46
2018-03-14T13:59:53.837Z,57.70
2018-03-14T14:02:21.276Z,56.93
2018-03-14T14:04:48.737Z,56.49
2018-03-14T14:07:16.229Z,55.57
2018-03-14T14:09:43.679Z,53.89
2018-03-14T14:12:12.126Z,53.84
2018-03-14T14:14:39.597Z,52.75
2018-03-14T14:17:07.046Z,54.12
2018-03-14T14:19:34.881Z,51.69
2018-03-14T14:22:02.325Z,50.89
2018-03-14T14:24:29.781Z,52.39
2018-03-14T14:26:57.397Z,51.94
2018-03-14T14:29:24.841Z,51.53
2018-03-14T14:31:52.821Z,51.77
2018-03-14T14:34:20.520Z,51.07
2018-03-14T14:36:47.973Z,51.37
2018-03-14T14:39:15.415Z,49.94
2018-03-14T14:41:43.645Z,51.21
2018-03-14T14:44:11.109Z,52.21
2018-03-14T14:46:38.549Z,52.26
2018-03-14T14:49:06.283Z,54.02
2018-03-14T14:51:33.748Z,56.45
2018-03-14T14:54:01.189Z,56.99
2018-03-14T14:56:28.661Z,54.98
2018-03-14T14:58:56.195Z,55.64
2018-03-14T15:01:23.729Z,55.86
2018-03-14T15:03:51.185Z,56.58
2018-03-14T15:06:18.868Z,56.77
2018-03-14T15:08:46.629Z,56.64
2018-03-14T15:11:14.069Z,57.28
2018-03-14T15:13:41.526Z,56.80
2018-03-14T15:16:08.988Z,56.40
2018-03-14T15:18:36.450Z,55.95
2018-03-14T15:21:04.034Z,55.92
2018-03-14T15:23:31.481Z,56.12
2018-03-14T15:25:59.501Z,55.38
2018-03-14T15:28:26.994Z,54.25
2018-03-14T15:30:54.434Z,54.37
2018-03-14T15:33:22.044Z,55.30
2018-03-14T15:35:49.489Z,56.47
2018-03-14T15:38:16.938Z,56.47
2018-03-14T15:40:44.449Z,56.10
2018-03-14T15:43:11.871Z,56.17
2018-03-14T15:45:39.559Z,54.29
2018-03-14T15:48:07.001Z,54.17
2018-03-14T15:50:34.466Z,54.75
2018-03-14T15:53:01.949Z,55.04
2018-03-14T15:55:29.396Z,54.96
2018-03-14T15:57:57.081Z,55.96
2018-03-14T16:00:24.522Z,55.09
2018-03-14T16:02:52.007Z,56.76
2018-03-14T16:05:19.463Z,58.25
2018-03-14T16:07:46.902Z,58.07
2018-03-14T16:10:14.639Z,58.73
2018-03-14T16:12:42.081Z,58.68
2018-03-14T16:15:09.554Z,58.75
2018-03-14T16:17:37.054Z,58.64
2018-03-14T16:20:04.502Z,58.34
2018-03-14T16:22:31.963Z,58.57
2018-03-14T16:24:59.413Z,58.87
2018-03-14T16:27:27.377Z,58.85
2018-03-14T16:29:54.890Z,59.29
2018-03-14T16:32:22.349Z,59.37
2018-03-14T16:34:50.009Z,59.60
2018-03-14T16:37:17.454Z,59.51
2018-03-14T16:39:44.902Z,59.99
2018-03-14T16:42:12.374Z,59.96
2018-03-14T16:44:39.885Z,59.84
2018-03-14T16:47:07.369Z,59.72
2018-03-14T16:49:34.830Z,59.30
2018-03-14T16:52:02.291Z,59.44
2018-03-14T16:54:29.757Z,59.80
2018-03-14T16:56:57.226Z,60.04
2018-03-14T16:59:24.718Z,60.95
2018-03-14T17:01:52.155Z,61.52
2018-03-14T17:04:19.601Z,62.15
2018-03-14T17:06:47.074Z,63.42
2018-03-14T17:09:14.524Z,64.44
2018-03-14T17:11:42.165Z,64.92
2018-03-14T17:14:09.988Z,65.08
2018-03-14T17:16:37.434Z,64.82
2018-03-14T17:19:04.910Z,64.66
2018-03-14T17:21:32.370Z,64.96
2018-03-14T17:23:59.864Z,65.40
2018-03-14T17:26:27.368Z,66.03
2018-03-14T17:28:54.807Z,66.84
2018-03-14T17:31:22.286Z,67.35
2018-03-14T17:33:49.721Z,68.16
2018-03-14T17:36:17.314Z,69.03
2018-03-14T17:38:44.763Z,69.59
2018-03-14T17:41:12.226Z,70.11
2018-03-14T17:43:39.689Z,70.05
2018-03-14T17:46:07.150Z,70.51
2018-03-14T17:48:34.630Z,71.59
2018-03-14T17:51:02.092Z,72.35
2018-03-14T17:53:29.553Z,73.08
2018-03-14T17:55:57.018Z,72.72
2018-03-14T17:58:24.453Z,72.72
2018-03-14T18:00:52.333Z,72.70
2018-03-14T18:03:19.777Z,73.61
2018-03-14T18:05:47.218Z,73.83
2018-03-14T18:08:14.690Z,74.06
2018-03-14T18:10:42.155Z,74.34
2018-03-14T18:13:09.809Z,74.07
2018-03-14T18:15:37.286Z,73.88
2018-03-14T18:18:04.752Z,74.38
2018-03-14T18:20:32.858Z,74.20
2018-03-14T18:23:00.304Z,74.64
2018-03-14T18:25:27.777Z,74.47
2018-03-14T18:27:55.222Z,74.21
2018-03-14T18:30:22.666Z,74.36
2018-03-14T18:32:50.126Z,74.46
2018-03-14T18:35:17.565Z,74.71
2018-03-14T18:37:45.166Z,75.57
2018-03-14T18:40:12.617Z,75.40
2018-03-14T18:42:40.067Z,75.61
2018-03-14T18:45:07.529Z,75.93
2018-03-14T18:47:34.974Z,75.92
2018-03-14T18:50:02.802Z,76.49
2018-03-14T18:52:30.245Z,77.32
2018-03-14T18:54:57.686Z,77.69
2018-03-14T18:57:25.149Z,77.96
2018-03-14T18:59:52.601Z,77.79
2018-03-14T19:02:20.237Z,77.43
2018-03-14T19:04:47.681Z,77.17
2018-03-14T19:07:15.137Z,77.04
2018-03-14T19:09:42.605Z,77.25
2018-03-14T19:12:10.052Z,77.50
2018-03-14T19:14:37.530Z,77.40
2018-03-14T19:17:05.026Z,76.99
2018-03-14T19:19:32.484Z,76.79
2018-03-14T19:22:00.913Z,76.75
2018-03-14T19:24:29.360Z,77.40
2018-03-14T19:26:56.994Z,77.60
2018-03-14T19:29:24.442Z,77.93
2018-03-14T19:31:51.876Z,77.74
2018-03-14T19:34:19.358Z,77.88
2018-03-14T19:36:47.713Z,77.76
2018-03-14T19:39:17.175Z,78.07
2018-03-14T19:41:44.621Z,78.33
2018-03-14T19:44:12.075Z,78.84
2018-03-14T19:46:39.538Z,78.82
2018-03-14T19:49:06.990Z,78.91
2018-03-14T19:51:34.854Z,78.89
2018-03-14T19:54:03.368Z,78.99
2018-03-14T19:56:30.813Z,78.90
2018-03-14T19:58:58.602Z,79.01
2018-03-14T20:01:26.046Z,79.23
2018-03-14T20:03:55.869Z,79.54
2018-03-14T20:06:24.389Z,79.42
2018-03-14T20:08:52.871Z,79.35
2018-03-14T20:11:20.952Z,78.87
2018-03-14T20:13:48.389Z,79.07
2018-03-14T20:16:16.430Z,79.66
2018-03-14T20:18:43.933Z,79.48
2018-03-14T20:21:11.398Z,79.69
2018-03-14T20:23:38.882Z,79.36
2018-03-14T20:26:06.325Z,79.98
2018-03-14T20:28:33.806Z,80.22
2018-03-14T20:31:03.088Z,79.80
2018-03-14T20:33:31.233Z,79.65
2018-03-14T20:35:58.731Z,79.46
2018-03-14T20:38:26.181Z,80.08
2018-03-14T20:40:54.922Z,80.16
2018-03-14T20:43:22.402Z,80.11
2018-03-14T20:45:50.350Z,80.42
2018-03-14T20:48:17.828Z,80.47
2018-03-14T20:50:45.286Z,80.12
2018-03-14T20:53:13.026Z,80.35
2018-03-14T20:55:41.259Z,80.78
2018-03-14T20:58:09.505Z,81.13
2018-03-14T21:00:36.988Z,81.22
2018-03-14T21:03:04.438Z,81.66
2018-03-14T21:05:32.137Z,81.81
2018-03-14T21:07:59.582Z,81.88
2018-03-14T21:10:27.059Z,82.11
2018-03-14T21:12:54.611Z,81.54
2018-03-14T21:15:22.097Z,82.01
2018-03-14T21:17:50.007Z,82.45
2018-03-14T21:20:17.463Z,82.22
2018-03-14T21:22:44.923Z,82.40
2018-03-14T21:25:12.390Z,82.45
2018-03-14T21:27:39.846Z,82.63
2018-03-14T21:30:07.454Z,82.65
2018-03-14T21:32:34.892Z,82.49
2018-03-14T21:35:02.361Z,82.37
2018-03-14T21:37:29.828Z,82.15
2018-03-14T21:39:57.272Z,82.00
2018-03-14T21:42:24.908Z,82.37
2018-03-14T21:44:52.386Z,81.81
2018-03-14T21:47:19.837Z,82.11
2018-03-14T21:49:47.301Z,82.30
2018-03-14T21:52:14.756Z,82.35
2018-03-14T21:54:42.417Z,82.56
2018-03-14T21:57:18.542Z,83.67
2018-03-14T21:59:46.205Z,83.82
2018-03-14T22:02:13.671Z,83.68
2018-03-14T22:04:41.102Z,83.79
2018-03-14T22:07:08.575Z,83.66
2018-03-14T22:09:36.018Z,83.88
2018-03-14T22:12:03.497Z,83.62
2018-03-14T22:14:30.944Z,83.21
2018-03-14T22:16:58.397Z,83.62
2018-03-14T22:19:25.894Z,83.73
2018-03-14T22:21:53.341Z,83.91
2018-03-14T22:24:21.005Z,83.72
2018-03-14T22:26:48.446Z,83.84
2018-03-14T22:29:15.898Z,83.90
2018-03-14T22:31:43.353Z,84.11
2018-03-14T22:34:10.806Z,84.30
2018-03-14T22:36:38.294Z,84.08
2018-03-14T22:39:05.733Z,84.33
2018-03-14T22:41:33.177Z,84.57
2018-03-14T22:44:00.639Z,84.79
2018-03-14T22:46:28.081Z,85.08
2018-03-14T22:48:55.701Z,85.23
2018-03-14T22:51:23.147Z,85.58
2018-03-14T22:53:50.616Z,85.54
2018-03-14T22:56:18.110Z,86.24
2018-03-14T22:58:45.595Z,86.02
2018-03-14T23:01:13.089Z,85.86
2018-03-14T23:03:40.534Z,86.13
2018-03-14T23:06:07.968Z,86.38
2018-03-14T23:08:35.453Z,86.33
2018-03-14T23:11:02.912Z,86.72
2018-03-14T23:13:30.391Z,86.86
2018-03-14T23:15:57.847Z,86.36
2018-03-14T23:18:25.290Z,85.94
2018-03-14T23:20:52.750Z,85.78
2018-03-14T23:23:20.210Z,85.79
2018-03-14T23:25:47.849Z,85.75
2018-03-14T23:28:15.314Z,85.88
2018-03-14T23:30:42.764Z,85.66
2018-03-14T23:33:10.251Z,85.78
2018-03-14T23:35:37.695Z,85.70
2018-03-14T23:38:05.505Z,86.02
2018-03-14T23:40:32.952Z,86.30
2018-03-14T23:43:00.393Z,86.39
2018-03-14T23:45:27.866Z,85.67
2018-03-14T23:47:55.302Z,86.15
2018-03-14T23:50:22.953Z,86.40
2018-03-14T23:52:50.408Z,86.56
2018-03-14T23:55:17.853Z,86.76
2018-03-14T23:57:45.329Z,87.09
